createdAt,value
2022-10-17T00:01:08.364Z,13.70
2022-10-17T00:03:37.705Z,13.70
2022-10-17T00:06:12.729Z,13.70
2022-10-17T00:08:42.080Z,13.70
2022-10-17T00:11:19.830Z,13.68
2022-10-17T00:13:50.628Z,13.60
2022-10-17T00:16:37.458Z,13.60
2022-10-17T00:19:07.272Z,13.60
2022-10-17T00:21:35.063Z,13.60
2022-10-17T00:24:02.784Z,13.60
2022-10-17T00:26:30.646Z,13.60
2022-10-17T00:28:58.805Z,13.56
2022-10-17T00:31:27.032Z,13.50
2022-10-17T00:33:54.876Z,13.50
2022-10-17T00:36:26.712Z,13.50
2022-10-17T00:38:59.100Z,13.50
2022-10-17T00:41:31.640Z,13.50
2022-10-17T00:44:27.961Z,13.42
2022-10-17T00:46:59.369Z,13.40
2022-10-17T00:49:31.423Z,13.40
2022-10-17T00:52:05.009Z,13.40
2022-10-17T00:54:44.283Z,13.40
2022-10-17T00:57:12.938Z,13.40
2022-10-17T00:59:43.280Z,13.34
2022-10-17T01:02:15.000Z,13.30
2022-10-17T01:06:20.155Z,13.30
2022-10-17T01:08:48.124Z,13.30
2022-10-17T01:11:47.078Z,13.28
2022-10-17T01:14:36.148Z,13.22
2022-10-17T01:17:18.228Z,13.20
2022-10-17T01:20:28.788Z,13.18
2022-10-17T01:23:32.678Z,13.10
2022-10-17T01:26:43.650Z,13.10
2022-10-17T01:29:41.624Z,13.10
2022-10-17T01:32:18.001Z,13.20
2022-10-17T01:34:56.608Z,13.20
2022-10-17T01:37:44.120Z,13.20
2022-10-17T01:40:37.651Z,13.20
2022-10-17T01:43:13.745Z,13.22
2022-10-17T01:45:53.662Z,13.30
2022-10-17T01:48:26.508Z,13.30
2022-10-17T01:51:03.774Z,13.36
2022-10-17T01:53:37.657Z,13.40
2022-10-17T01:56:09.257Z,13.40
2022-10-17T01:58:45.493Z,13.40
2022-10-17T02:01:13.733Z,13.40
2022-10-17T02:03:43.765Z,13.50
2022-10-17T02:06:11.680Z,13.50
2022-10-17T02:08:49.209Z,13.48
2022-10-17T02:11:24.825Z,13.48
2022-10-17T02:14:20.788Z,13.42
2022-10-17T02:17:17.589Z,13.50
2022-10-17T02:20:00.550Z,13.50
2022-10-17T02:23:02.824Z,13.50
2022-10-17T02:25:50.060Z,13.50
2022-10-17T02:28:24.162Z,13.50
2022-10-17T02:31:04.423Z,13.44
2022-10-17T02:33:39.653Z,13.40
2022-10-17T02:36:15.255Z,13.40
2022-10-17T02:38:45.513Z,13.40
2022-10-17T02:41:18.082Z,13.40
2022-10-17T02:43:49.105Z,13.40
2022-10-17T02:46:21.477Z,13.40
2022-10-17T02:49:05.880Z,13.40
2022-10-17T02:52:04.004Z,13.30
2022-10-17T02:54:43.499Z,13.30
2022-10-17T02:57:22.110Z,13.30
2022-10-17T02:59:50.262Z,13.30
2022-10-17T03:02:18.393Z,13.30
2022-10-17T03:04:47.464Z,13.26
2022-10-17T03:07:16.918Z,13.20
2022-10-17T03:09:44.886Z,13.20
2022-10-17T03:12:13.007Z,13.20
2022-10-17T03:14:40.745Z,13.20
2022-10-17T03:17:09.165Z,13.20
2022-10-17T03:19:37.035Z,13.20
2022-10-17T03:22:04.831Z,13.24
2022-10-17T03:24:33.710Z,13.22
2022-10-17T03:27:01.660Z,13.20
2022-10-17T03:29:29.499Z,13.20
2022-10-17T03:31:57.555Z,13.20
2022-10-17T03:34:26.446Z,13.20
2022-10-17T03:36:54.337Z,13.24
2022-10-17T03:39:23.239Z,13.24
2022-10-17T03:41:50.977Z,13.28
2022-10-17T03:44:18.988Z,13.30
2022-10-17T03:46:46.873Z,13.30
2022-10-17T03:49:14.687Z,13.30
2022-10-17T03:51:42.482Z,13.30
2022-10-17T03:54:12.867Z,13.30
2022-10-17T03:56:40.838Z,13.30
2022-10-17T03:59:14.722Z,13.30
2022-10-17T04:01:44.675Z,13.30
2022-10-17T04:04:13.192Z,13.30
2022-10-17T04:06:41.194Z,13.30
2022-10-17T04:09:11.090Z,13.30
2022-10-17T04:12:05.538Z,13.30
2022-10-17T04:14:33.731Z,13.30
2022-10-17T04:17:02.487Z,13.20
2022-10-17T04:19:30.348Z,13.20
2022-10-17T04:21:58.132Z,13.20
2022-10-17T04:24:26.014Z,13.20
2022-10-17T04:26:58.967Z,13.20
2022-10-17T04:29:29.289Z,13.20
2022-10-17T04:32:05.915Z,13.20
2022-10-17T04:34:44.216Z,13.20
2022-10-17T04:37:11.995Z,13.20
2022-10-17T04:39:39.719Z,13.10
2022-10-17T04:42:07.848Z,13.10
2022-10-17T04:44:35.867Z,13.10
2022-10-17T04:47:03.874Z,13.10
2022-10-17T04:49:32.040Z,13.10
2022-10-17T04:52:07.145Z,13.10
2022-10-17T04:54:45.771Z,13.10
2022-10-17T04:57:15.197Z,13.10
2022-10-17T04:59:47.625Z,13.10
2022-10-17T05:02:23.358Z,13.10
2022-10-17T05:04:51.710Z,13.10
2022-10-17T05:07:20.243Z,13.10
2022-10-17T05:10:05.577Z,13.10
2022-10-17T05:12:33.502Z,13.04
2022-10-17T05:15:01.381Z,13.04
2022-10-17T05:17:29.434Z,13.02
2022-10-17T05:19:57.502Z,13.02
2022-10-17T05:22:25.453Z,13.10
2022-10-17T05:24:53.204Z,13.10
2022-10-17T05:27:20.911Z,13.10
2022-10-17T05:29:49.255Z,13.10
2022-10-17T05:32:21.492Z,13.10
2022-10-17T05:34:49.768Z,13.14
2022-10-17T05:37:17.802Z,13.20
2022-10-17T05:39:51.447Z,13.20
2022-10-17T05:42:19.710Z,13.20
2022-10-17T05:44:47.800Z,13.20
2022-10-17T05:47:17.222Z,13.30
2022-10-17T05:49:49.993Z,13.30
2022-10-17T05:52:22.186Z,13.38
2022-10-17T05:54:59.985Z,13.40
2022-10-17T05:57:28.311Z,13.46
2022-10-17T05:59:57.439Z,13.50
2022-10-17T06:02:25.518Z,13.50
2022-10-17T06:04:53.640Z,13.60
2022-10-17T06:07:22.401Z,13.60
2022-10-17T06:09:50.507Z,13.60
2022-10-17T06:12:18.558Z,13.70
2022-10-17T06:14:46.910Z,13.70
2022-10-17T06:17:16.373Z,13.70
2022-10-17T06:19:45.318Z,13.80
2022-10-17T06:22:15.046Z,13.80
2022-10-17T06:24:43.100Z,13.82
2022-10-17T06:27:12.309Z,13.90
2022-10-17T06:29:41.774Z,13.90
2022-10-17T06:32:12.645Z,13.94
2022-10-17T06:34:43.567Z,14.00
2022-10-17T06:37:11.815Z,14.00
2022-10-17T06:39:41.394Z,14.00
2022-10-17T06:42:14.252Z,14.10
2022-10-17T06:45:04.251Z,14.12
2022-10-17T06:47:42.963Z,14.20
2022-10-17T06:50:43.161Z,14.20
2022-10-17T06:53:14.658Z,14.30
2022-10-17T06:55:55.324Z,14.40
2022-10-17T06:58:41.632Z,14.40
2022-10-17T07:01:23.066Z,14.50
2022-10-17T07:03:55.096Z,14.60
2022-10-17T07:06:26.706Z,14.60
2022-10-17T07:08:56.711Z,14.66
2022-10-17T07:11:25.849Z,14.70
2022-10-17T07:13:53.654Z,14.80
2022-10-17T07:16:22.796Z,14.94
2022-10-17T07:19:01.311Z,15.02
2022-10-17T07:21:38.151Z,15.12
2022-10-17T07:24:08.157Z,15.30
2022-10-17T07:26:36.360Z,15.30
2022-10-17T07:29:06.465Z,15.40
2022-10-17T07:31:38.606Z,15.50
2022-10-17T07:34:06.559Z,15.60
2022-10-17T07:36:34.629Z,15.70
2022-10-17T07:39:04.880Z,15.78
2022-10-17T07:41:33.600Z,15.86
2022-10-17T07:44:01.518Z,16.00
2022-10-17T07:46:34.590Z,16.20
2022-10-17T07:49:02.408Z,16.50
2022-10-17T07:51:30.143Z,16.82
2022-10-17T07:53:57.993Z,17.18
2022-10-17T07:56:25.771Z,17.62
2022-10-17T07:58:53.815Z,18.10
2022-10-17T08:01:21.765Z,18.60
2022-10-17T08:03:49.466Z,19.10
2022-10-17T08:06:17.307Z,19.30
2022-10-17T08:08:45.185Z,19.40
2022-10-17T08:11:14.633Z,19.40
2022-10-17T08:13:42.888Z,19.20
2022-10-17T08:16:12.619Z,19.14
2022-10-17T08:18:43.212Z,19.00
2022-10-17T08:21:13.275Z,19.00
2022-10-17T08:23:41.446Z,19.00
2022-10-17T08:26:13.361Z,19.20
2022-10-17T08:28:41.579Z,19.64
2022-10-17T08:31:14.793Z,20.06
2022-10-17T08:33:42.937Z,20.52
2022-10-17T08:36:15.709Z,20.90
2022-10-17T08:38:45.451Z,21.10
2022-10-17T08:41:30.341Z,21.30
2022-10-17T08:44:43.314Z,21.58
2022-10-17T08:47:24.512Z,21.46
2022-10-17T08:49:58.754Z,21.20
2022-10-17T08:52:44.622Z,21.06
2022-10-17T08:55:41.288Z,20.80
2022-10-17T08:58:36.944Z,20.60
2022-10-17T16:26:29.287Z,19.50
2022-10-17T16:28:58.291Z,19.50
2022-10-17T16:31:30.155Z,19.40
2022-10-17T16:34:00.309Z,19.40
2022-10-17T16:36:28.300Z,19.30
2022-10-17T16:38:56.525Z,19.30
2022-10-17T16:41:31.547Z,19.30
2022-10-17T16:44:07.974Z,19.20
2022-10-17T16:46:38.031Z,19.20
2022-10-17T16:49:07.187Z,19.12
2022-10-17T16:51:36.031Z,19.10
2022-10-17T16:54:05.344Z,19.10
2022-10-17T16:56:33.323Z,19.00
2022-10-17T16:59:02.214Z,19.00
2022-10-17T17:01:29.986Z,19.00
2022-10-17T17:03:57.980Z,18.98
2022-10-17T17:06:29.642Z,18.90
2022-10-17T17:08:58.001Z,18.84
2022-10-17T17:11:27.900Z,18.80
2022-10-17T17:13:57.847Z,18.74
2022-10-17T17:16:28.119Z,18.70
2022-10-17T17:19:10.301Z,18.60
2022-10-17T17:21:38.580Z,18.60
2022-10-17T17:24:06.423Z,18.56
2022-10-17T17:26:36.334Z,18.50
